Time;durP1;ratioP1;P1;durP2;ratioP2;P2;SDS_P1;SDS_P2;PMS_P1;PMS_P2;Temp;Humidity;BMP_temperature;BMP_pressure;BME280_temperature;BME280_humidity;BME280_pressure;Samples;Min_cycle;Max_cycle;Signal;HPM_P1;HPM_P2
2023/04/27 00:00:22;;;;;;;8.63;5.63;;;7.40;99.90;;;;;;5011107;28;20176;-76
2023/04/27 00:02:48;;;;;;;6.60;4.70;;;7.40;99.90;;;;;;5016413;28;20237;-76
2023/04/27 00:05:14;;;;;;;6.50;4.70;;;7.30;99.90;;;;;;5022180;28;20186;-76
2023/04/27 00:07:40;;;;;;;6.13;5.10;;;7.20;99.90;;;;;;5011778;28;20206;-76
2023/04/27 00:10:06;;;;;;;8.20;5.40;;;7.20;99.90;;;;;;5022071;28;20224;-76
2023/04/27 00:12:32;;;;;;;5.60;4.97;;;7.10;99.90;;;;;;5025139;28;20429;-76
2023/04/27 00:14:58;;;;;;;10.03;5.43;;;7.20;99.90;;;;;;5013695;28;20436;-76
2023/04/27 00:17:24;;;;;;;6.53;4.83;;;6.90;99.90;;;;;;5007151;28;20171;-75
2023/04/27 00:19:51;;;;;;;7.90;5.13;;;7.10;99.90;;;;;;5020963;28;20984;-75
2023/04/27 00:22:17;;;;;;;8.87;5.07;;;7.00;99.90;;;;;;5017872;28;20256;-76
2023/04/27 00:24:42;;;;;;;7.20;5.30;;;7.00;99.90;;;;;;5018747;28;20410;-76
2023/04/27 00:27:08;;;;;;;6.70;5.00;;;6.70;99.90;;;;;;5021075;28;20480;-76
2023/04/27 00:29:34;;;;;;;7.20;4.50;;;6.90;99.90;;;;;;5018801;28;20264;-76
2023/04/27 00:31:59;;;;;;;8.17;5.23;;;6.90;99.90;;;;;;5015288;28;20206;-76
2023/04/27 00:34:25;;;;;;;7.23;5.10;;;6.90;99.90;;;;;;5011727;28;20538;-76
2023/04/27 00:36:51;;;;;;;6.20;5.23;;;6.90;99.90;;;;;;5010918;28;20175;-76
2023/04/27 00:39:16;;;;;;;6.10;4.93;;;6.90;99.90;;;;;;5012075;28;20194;-76
2023/04/27 00:41:42;;;;;;;6.73;5.40;;;6.90;99.90;;;;;;5011791;28;20314;-76
2023/04/27 00:44:08;;;;;;;5.90;5.30;;;6.90;99.90;;;;;;5010718;28;20705;-76
2023/04/27 00:46:34;;;;;;;8.07;5.60;;;6.50;99.90;;;;;;5012209;28;20183;-75
2023/04/27 00:49:00;;;;;;;5.70;5.10;;;6.90;99.90;;;;;;5010728;28;20203;-76
2023/04/27 00:51:28;;;;;;;7.13;5.07;;;6.90;99.90;;;;;;5010664;28;20464;-76
2023/04/27 00:53:56;;;;;;;6.37;5.00;;;7.00;99.90;;;;;;5011945;28;20922;-76
2023/04/27 00:56:22;;;;;;;7.50;5.77;;;6.80;99.90;;;;;;5012061;28;20485;-76
2023/04/27 00:58:48;;;;;;;7.37;5.00;;;6.80;99.90;;;;;;5010537;28;20518;-76
2023/04/27 01:01:14;;;;;;;6.13;4.87;;;6.80;99.90;;;;;;5011614;28;20938;-77
2023/04/27 01:03:40;;;;;;;7.77;4.80;;;6.70;99.90;;;;;;4993832;28;20432;-76
2023/04/27 01:06:06;;;;;;;6.90;4.50;;;6.70;99.90;;;;;;5010485;28;20676;-76
2023/04/27 01:08:32;;;;;;;8.00;5.17;;;6.50;99.90;;;;;;5011665;28;20478;-75
2023/04/27 01:10:57;;;;;;;6.10;4.43;;;6.70;99.90;;;;;;5011630;28;20434;-76
2023/04/27 01:13:23;;;;;;;6.27;5.20;;;6.60;99.90;;;;;;5011377;28;20171;-76
2023/04/27 01:15:49;;;;;;;6.43;5.07;;;6.50;99.90;;;;;;5011711;28;20279;-76
2023/04/27 01:18:14;;;;;;;8.93;5.40;;;6.50;99.90;;;;;;5011367;28;20809;-76
2023/04/27 01:20:41;;;;;;;6.87;5.20;;;6.50;99.90;;;;;;5011586;28;20264;-76
2023/04/27 01:23:07;;;;;;;6.77;5.37;;;6.50;99.90;;;;;;5011307;28;20175;-76
2023/04/27 01:25:32;;;;;;;7.07;5.10;;;6.50;99.90;;;;;;5010255;28;20807;-75
2023/04/27 01:27:58;;;;;;;6.77;5.90;;;6.40;99.90;;;;;;5011623;28;21193;-76
2023/04/27 01:30:24;;;;;;;7.00;5.63;;;6.50;99.90;;;;;;5011399;28;20568;-76
2023/04/27 01:32:49;;;;;;;9.57;6.00;;;6.40;99.90;;;;;;5011254;28;20175;-75
2023/04/27 01:35:15;;;;;;;7.20;4.67;;;6.50;99.90;;;;;;5011115;28;20186;-75
2023/04/27 01:37:41;;;;;;;7.97;6.07;;;6.40;99.90;;;;;;5010770;28;20219;-76
2023/04/27 01:40:07;;;;;;;7.77;5.70;;;6.40;99.90;;;;;;5009672;28;20775;-76
2023/04/27 01:42:33;;;;;;;7.77;5.90;;;6.40;99.90;;;;;;4991935;28;20277;-76
2023/04/27 01:44:59;;;;;;;6.47;5.47;;;6.40;99.90;;;;;;4990130;28;20418;-76
2023/04/27 01:47:26;;;;;;;7.80;5.20;;;6.50;99.90;;;;;;5006472;28;20238;-75
2023/04/27 01:49:52;;;;;;;7.40;4.90;;;6.70;99.90;;;;;;4991196;28;20469;-76
2023/04/27 01:52:17;;;;;;;9.13;5.77;;;6.30;99.90;;;;;;5006286;28;20431;-75
2023/04/27 01:54:43;;;;;;;7.20;5.50;;;6.60;99.90;;;;;;4991049;28;20207;-76
2023/04/27 01:57:09;;;;;;;8.67;5.67;;;6.60;99.90;;;;;;4991090;28;20438;-76
2023/04/27 01:59:35;;;;;;;6.80;5.43;;;6.50;99.90;;;;;;4991040;28;20179;-76
2023/04/27 02:02:00;;;;;;;6.63;5.00;;;6.60;99.90;;;;;;4991098;28;20204;-76
2023/04/27 02:04:26;;;;;;;9.07;5.10;;;6.70;99.90;;;;;;5022221;28;20183;-76
2023/04/27 02:06:52;;;;;;;14.67;6.17;;;6.50;99.90;;;;;;5010613;28;20245;-76
2023/04/27 02:09:17;;;;;;;9.73;5.70;;;6.60;99.90;;;;;;5009138;28;20349;-76
2023/04/27 02:11:43;;;;;;;7.77;5.10;;;6.60;99.90;;;;;;5010460;28;20202;-76
2023/04/27 02:14:08;;;;;;;7.70;5.70;;;6.60;99.90;;;;;;5010310;28;20179;-77
2023/04/27 02:16:34;;;;;;;11.87;6.20;;;6.50;99.90;;;;;;5025676;28;20195;-76
2023/04/27 02:19:00;;;;;;;9.47;5.50;;;6.70;99.90;;;;;;5010314;28;20334;-76
2023/04/27 02:21:27;;;;;;;9.20;5.50;;;6.60;99.90;;;;;;5010459;28;20199;-76
2023/04/27 02:23:53;;;;;;;9.27;5.73;;;6.50;99.90;;;;;;4992667;28;20433;-77
2023/04/27 02:26:21;;;;;;;9.17;5.90;;;6.60;99.90;;;;;;5010495;28;20793;-76
2023/04/27 02:28:47;;;;;;;8.53;6.00;;;6.50;99.90;;;;;;5010072;28;20183;-76
2023/04/27 02:31:13;;;;;;;8.20;6.03;;;6.60;99.90;;;;;;5025151;28;20950;-75
2023/04/27 02:33:40;;;;;;;10.60;6.50;;;6.50;99.90;;;;;;5009907;28;20421;-77
2023/04/27 02:36:07;;;;;;;10.87;6.37;;;6.50;99.90;;;;;;5010407;28;20402;-75
2023/04/27 02:38:33;;;;;;;8.60;6.27;;;6.50;99.90;;;;;;5009983;28;20756;-76
2023/04/27 02:40:58;;;;;;;7.20;5.50;;;6.50;99.90;;;;;;5003573;28;20863;-75
2023/04/27 02:43:24;;;;;;;8.40;6.33;;;6.40;99.90;;;;;;4990261;28;20410;-76
2023/04/27 02:45:50;;;;;;;7.37;5.80;;;6.30;99.90;;;;;;4988975;28;20188;-77
2023/04/27 02:48:16;;;;;;;7.20;5.80;;;6.30;99.90;;;;;;5004591;28;20215;-75
2023/04/27 02:50:42;;;;;;;7.40;5.70;;;6.30;99.90;;;;;;4990052;28;20216;-76
2023/04/27 02:53:09;;;;;;;11.77;8.33;;;6.20;99.90;;;;;;4989916;28;20233;-76
2023/04/27 02:55:35;;;;;;;11.50;6.33;;;6.30;99.90;;;;;;4990052;28;20423;-76
2023/04/27 02:58:00;;;;;;;10.27;6.20;;;6.10;99.90;;;;;;4990026;28;20415;-76
2023/04/27 03:00:26;;;;;;;11.00;5.23;;;6.20;99.90;;;;;;4989819;28;20190;-76
2023/04/27 03:02:52;;;;;;;7.73;6.43;;;6.10;99.90;;;;;;4993282;28;20187;-75
2023/04/27 03:05:18;;;;;;;8.97;6.30;;;6.20;99.90;;;;;;5008390;28;20187;-76
2023/04/27 03:07:43;;;;;;;8.10;5.93;;;6.00;99.90;;;;;;5009524;28;20201;-76
2023/04/27 03:10:10;;;;;;;8.80;6.00;;;6.10;99.90;;;;;;5009044;28;20466;-76
2023/04/27 03:12:36;;;;;;;12.40;6.23;;;6.00;99.90;;;;;;5009415;28;20203;-76
2023/04/27 03:15:02;;;;;;;12.00;6.37;;;6.10;99.90;;;;;;5009153;28;20418;-76
2023/04/27 03:17:27;;;;;;;9.30;6.40;;;6.00;99.90;;;;;;5009407;28;20171;-76
2023/04/27 03:19:53;;;;;;;9.27;5.97;;;6.10;99.90;;;;;;5009077;28;20426;-76
2023/04/27 03:22:19;;;;;;;10.43;6.40;;;6.10;99.90;;;;;;5007997;28;20207;-76
2023/04/27 03:24:45;;;;;;;9.67;6.90;;;6.00;99.90;;;;;;5008988;28;20180;-76
2023/04/27 03:27:11;;;;;;;16.73;6.70;;;6.20;99.90;;;;;;5009175;28;20422;-75
2023/04/27 03:29:37;;;;;;;9.03;6.83;;;6.20;99.90;;;;;;5010544;28;20226;-79
2023/04/27 03:32:03;;;;;;;10.77;6.63;;;6.10;99.90;;;;;;5010309;28;20433;-79
2023/04/27 03:34:29;;;;;;;8.30;6.40;;;6.10;99.90;;;;;;5010740;28;20186;-77
2023/04/27 03:36:55;;;;;;;11.43;7.67;;;6.30;99.90;;;;;;5008337;28;20414;-77
2023/04/27 03:39:21;;;;;;;9.13;6.40;;;6.50;99.90;;;;;;5010906;28;20437;-76
2023/04/27 03:41:47;;;;;;;12.20;7.13;;;6.40;99.90;;;;;;4996443;28;20450;-77
2023/04/27 03:44:13;;;;;;;8.77;6.40;;;6.40;99.90;;;;;;4990635;28;20416;-79
2023/04/27 03:46:38;;;;;;;12.20;7.73;;;6.40;99.90;;;;;;4990660;28;20187;-79
2023/04/27 03:49:04;;;;;;;8.60;6.93;;;6.20;99.90;;;;;;4990435;28;20203;-79
2023/04/27 03:51:33;;;;;;;11.00;7.33;;;6.40;99.90;;;;;;4990444;28;20204;-79
2023/04/27 03:53:59;;;;;;;10.67;7.53;;;6.20;99.90;;;;;;5006002;28;20179;-79
2023/04/27 03:56:25;;;;;;;11.20;7.73;;;6.50;99.90;;;;;;4991015;28;20427;-79
2023/04/27 03:58:51;;;;;;;16.97;7.07;;;6.40;99.90;;;;;;4990924;28;20832;-80
2023/04/27 04:01:17;;;;;;;9.20;7.20;;;6.30;99.90;;;;;;4991331;28;20431;-77
2023/04/27 04:03:43;;;;;;;9.80;7.30;;;6.20;99.90;;;;;;5000253;28;20430;-76
2023/04/27 04:06:09;;;;;;;10.00;7.27;;;6.10;99.90;;;;;;5025940;28;20449;-78
2023/04/27 04:08:36;;;;;;;8.30;7.17;;;6.10;99.90;;;;;;5010169;28;20760;-79
2023/04/27 04:11:02;;;;;;;12.57;8.03;;;6.20;99.90;;;;;;5008363;28;20496;-78
2023/04/27 04:13:28;;;;;;;12.80;7.70;;;6.40;99.90;;;;;;5008878;28;20489;-79
2023/04/27 04:16:04;;;;;;;9.80;7.47;;;6.40;99.90;;;;;;5010476;28;20406;-79
2023/04/27 04:18:30;;;;;;;10.03;7.87;;;6.30;99.90;;;;;;5010615;28;20417;-79
2023/04/27 04:20:56;;;;;;;11.37;7.37;;;6.40;99.90;;;;;;4992678;28;20434;-78
2023/04/27 04:23:22;;;;;;;9.37;7.37;;;6.20;99.90;;;;;;5010070;28;20199;-79
2023/04/27 04:25:48;;;;;;;9.03;7.27;;;6.30;99.90;;;;;;5009613;28;20183;-79
2023/04/27 04:28:13;;;;;;;13.33;7.00;;;6.30;99.90;;;;;;5010799;28;20410;-77
2023/04/27 04:30:39;;;;;;;8.70;7.00;;;6.40;99.90;;;;;;4992184;28;20218;-77
2023/04/27 04:33:05;;;;;;;10.53;6.57;;;6.40;99.90;;;;;;5025441;28;20267;-79
2023/04/27 04:35:31;;;;;;;12.60;7.40;;;6.20;99.90;;;;;;5009914;28;20700;-75
2023/04/27 04:37:58;;;;;;;10.40;7.90;;;6.20;99.90;;;;;;5009859;28;20533;-75
2023/04/27 04:40:24;;;;;;;10.40;6.63;;;6.30;99.90;;;;;;5008745;28;20472;-77
2023/04/27 04:42:49;;;;;;;10.70;6.63;;;6.30;99.90;;;;;;4989420;28;20423;-77
2023/04/27 04:45:15;;;;;;;11.03;7.40;;;6.20;99.90;;;;;;4991014;28;20916;-78
2023/04/27 04:47:41;;;;;;;11.37;6.83;;;6.20;99.90;;;;;;5005603;28;20549;-79
2023/04/27 04:50:08;;;;;;;12.10;9.50;;;6.30;99.90;;;;;;4990451;28;20250;-78
2023/04/27 04:52:36;;;;;;;11.87;7.27;;;6.20;99.90;;;;;;5010112;28;20217;-76
2023/04/27 04:55:02;;;;;;;9.23;6.90;;;6.40;99.90;;;;;;5014994;28;20456;-78
2023/04/27 04:57:29;;;;;;;10.93;7.30;;;6.30;99.90;;;;;;5022495;28;20423;-76
2023/04/27 04:59:55;;;;;;;10.97;7.80;;;6.30;99.90;;;;;;5029833;28;20501;-79
2023/04/27 05:02:21;;;;;;;8.97;6.67;;;6.40;99.90;;;;;;5031441;28;20448;-79
2023/04/27 05:04:47;;;;;;;12.23;7.93;;;6.40;99.90;;;;;;5010939;28;20194;-78
2023/04/27 05:07:13;;;;;;;12.07;7.20;;;6.60;99.90;;;;;;5019609;28;20414;-77
2023/04/27 05:09:39;;;;;;;10.60;7.57;;;6.50;99.90;;;;;;5027968;28;20256;-76
2023/04/27 05:12:05;;;;;;;10.50;7.37;;;6.40;99.90;;;;;;5030689;28;20437;-77
2023/04/27 05:14:31;;;;;;;9.93;6.57;;;6.30;99.90;;;;;;5031349;28;20451;-79
2023/04/27 05:16:57;;;;;;;8.80;6.60;;;6.30;99.90;;;;;;5031446;28;20491;-79
2023/04/27 05:19:24;;;;;;;12.33;7.40;;;6.60;99.90;;;;;;5031623;28;20421;-77
2023/04/27 05:21:50;;;;;;;10.03;6.70;;;6.40;99.90;;;;;;5032840;28;20225;-79
2023/04/27 05:24:16;;;;;;;11.93;6.90;;;6.50;99.90;;;;;;5031665;28;20417;-78
2023/04/27 05:26:42;;;;;;;14.73;7.73;;;6.60;99.90;;;;;;5020857;28;21010;-78
2023/04/27 05:29:08;;;;;;;11.20;7.10;;;6.30;99.90;;;;;;5022920;28;20452;-77
2023/04/27 05:31:34;;;;;;;12.80;7.10;;;6.80;99.90;;;;;;5024179;28;20964;-79
2023/04/27 05:33:59;;;;;;;13.43;6.20;;;6.70;99.90;;;;;;5031291;28;20245;-77
2023/04/27 05:36:27;;;;;;;10.63;6.40;;;6.60;99.90;;;;;;5031318;28;20227;-79
2023/04/27 05:38:53;;;;;;;8.53;6.80;;;6.70;99.90;;;;;;5032517;28;20186;-78
2023/04/27 05:41:19;;;;;;;9.10;6.17;;;6.70;99.90;;;;;;5023243;28;20577;-78
2023/04/27 05:43:45;;;;;;;11.33;6.63;;;6.80;99.90;;;;;;5011020;28;20779;-79
2023/04/27 05:46:14;;;;;;;8.47;6.77;;;6.80;99.90;;;;;;5012222;28;20460;-79
2023/04/27 05:48:40;;;;;;;12.93;6.50;;;7.10;99.90;;;;;;5011778;28;20227;-79
2023/04/27 05:51:05;;;;;;;11.43;6.50;;;7.10;99.90;;;;;;4993357;28;20784;-79
2023/04/27 05:53:32;;;;;;;9.97;6.30;;;7.30;99.90;;;;;;5009842;28;20445;-79
2023/04/27 05:55:59;;;;;;;9.03;6.37;;;7.50;99.90;;;;;;5010843;28;20188;-78
2023/04/27 05:58:26;;;;;;;8.60;6.67;;;7.60;99.90;;;;;;5012777;28;20927;-79
2023/04/27 06:00:53;;;;;;;9.90;6.33;;;7.80;99.90;;;;;;5018186;28;20544;-79
2023/04/27 06:03:18;;;;;;;8.40;6.20;;;7.90;99.90;;;;;;5008478;28;21023;-79
2023/04/27 06:05:44;;;;;;;13.10;7.27;;;8.00;99.90;;;;;;5007586;28;20434;-77
2023/04/27 06:08:11;;;;;;;10.20;6.17;;;8.20;99.90;;;;;;5015785;28;20183;-79
2023/04/27 06:10:37;;;;;;;11.60;6.50;;;8.20;99.90;;;;;;5024228;28;20465;-79
2023/04/27 06:13:03;;;;;;;12.10;5.60;;;8.30;99.90;;;;;;5021531;28;20787;-78
2023/04/27 06:15:29;;;;;;;10.87;6.30;;;8.40;99.90;;;;;;5014157;28;20433;-78
2023/04/27 06:17:55;;;;;;;7.07;5.60;;;8.50;99.90;;;;;;5036075;28;20615;-76
2023/04/27 06:20:21;;;;;;;9.60;5.97;;;8.70;99.90;;;;;;5026500;28;20442;-78
2023/04/27 06:22:47;;;;;;;8.40;6.40;;;8.80;99.90;;;;;;5016140;28;20982;-79
2023/04/27 06:25:12;;;;;;;8.93;5.90;;;8.90;99.90;;;;;;5017071;28;20434;-79
2023/04/27 06:27:38;;;;;;;8.47;5.70;;;8.90;99.90;;;;;;5018352;28;20426;-79
2023/04/27 06:30:05;;;;;;;10.47;5.83;;;9.00;99.90;;;;;;5020207;28;20288;-79
2023/04/27 06:32:30;;;;;;;6.03;4.80;;;9.10;99.90;;;;;;5008467;28;20207;-78
2023/04/27 06:34:56;;;;;;;6.77;4.70;;;9.10;99.90;;;;;;5008462;28;20480;-78
2023/04/27 06:37:22;;;;;;;7.17;4.67;;;9.20;99.90;;;;;;5021976;28;20191;-77
2023/04/27 06:39:47;;;;;;;6.57;3.77;;;9.30;99.90;;;;;;5008682;28;20191;-77
2023/04/27 06:42:13;;;;;;;6.90;5.40;;;9.30;99.90;;;;;;5008377;28;20203;-77
2023/04/27 06:44:39;;;;;;;6.03;4.90;;;9.40;99.90;;;;;;5010598;28;20274;-78
2023/04/27 06:47:05;;;;;;;5.50;4.57;;;9.50;99.90;;;;;;5009365;28;20290;-78
2023/04/27 06:49:31;;;;;;;7.50;5.00;;;9.60;99.90;;;;;;5011373;28;20207;-78
2023/04/27 06:51:56;;;;;;;6.83;4.83;;;9.60;99.90;;;;;;5011334;28;20465;-77
2023/04/27 06:54:22;;;;;;;7.43;4.13;;;9.70;99.90;;;;;;5026211;28;20175;-78
2023/04/27 06:56:48;;;;;;;5.10;4.20;;;9.80;99.90;;;;;;5011108;28;20337;-77
2023/04/27 06:59:13;;;;;;;9.80;4.80;;;9.80;99.90;;;;;;5009694;28;20175;-79
2023/04/27 07:01:39;;;;;;;8.10;4.60;;;9.80;99.90;;;;;;5010946;28;20253;-78
2023/04/27 07:04:05;;;;;;;5.80;4.20;;;9.80;99.90;;;;;;4997957;28;20195;-77
2023/04/27 07:06:31;;;;;;;6.63;4.40;;;9.70;99.90;;;;;;5006727;28;20191;-77
2023/04/27 07:08:57;;;;;;;5.07;3.80;;;9.80;99.90;;;;;;5006985;28;20426;-79
2023/04/27 07:11:23;;;;;;;6.47;4.63;;;9.80;99.90;;;;;;5010168;28;20541;-78
2023/04/27 07:13:49;;;;;;;6.93;4.47;;;9.90;99.90;;;;;;5025695;28;20506;-78
2023/04/27 07:16:15;;;;;;;4.73;3.83;;;9.90;99.90;;;;;;5025846;28;20901;-78
2023/04/27 07:18:41;;;;;;;6.67;4.80;;;10.00;99.90;;;;;;5025394;28;20946;-78
2023/04/27 07:21:06;;;;;;;5.60;3.53;;;10.00;99.90;;;;;;5010403;28;20430;-79
2023/04/27 07:23:32;;;;;;;6.20;3.97;;;10.00;99.90;;;;;;5009750;28;20215;-79
2023/04/27 07:25:58;;;;;;;5.50;4.03;;;10.00;99.90;;;;;;5010744;28;20175;-78
2023/04/27 07:28:24;;;;;;;10.03;4.23;;;10.10;99.80;;;;;;5009263;28;20233;-78
2023/04/27 07:30:50;;;;;;;6.30;4.23;;;10.00;99.10;;;;;;5025731;28;20632;-78
2023/04/27 07:33:16;;;;;;;4.43;3.53;;;10.00;98.40;;;;;;5010590;28;20434;-78
2023/04/27 07:35:42;;;;;;;5.43;3.77;;;10.00;98.20;;;;;;5025542;28;20513;-77
2023/04/27 07:38:08;;;;;;;5.80;4.00;;;9.90;98.70;;;;;;5010156;28;20517;-78
2023/04/27 07:40:33;;;;;;;9.33;4.83;;;9.90;99.10;;;;;;5007394;28;20674;-77
2023/04/27 07:42:59;;;;;;;4.80;4.30;;;10.00;99.60;;;;;;5005796;28;20188;-79
2023/04/27 07:45:30;;;;;;;6.03;4.43;;;10.00;99.40;;;;;;4990771;28;20179;-78
2023/04/27 07:47:58;;;;;;;6.00;3.80;;;10.10;99.70;;;;;;4990727;28;20684;-78
2023/04/27 07:50:28;;;;;;;4.37;3.70;;;10.00;99.50;;;;;;5005461;28;20990;-77
2023/04/27 07:52:54;;;;;;;5.60;4.80;;;10.00;99.00;;;;;;5006068;28;20422;-78
2023/04/27 07:55:22;;;;;;;5.77;4.00;;;10.00;99.40;;;;;;4990701;28;20411;-78
2023/04/27 07:57:49;;;;;;;6.10;4.57;;;9.80;99.70;;;;;;4990683;28;20411;-78
2023/04/27 08:00:15;;;;;;;6.53;4.27;;;9.90;99.90;;;;;;4990711;28;20423;-77
2023/04/27 08:02:41;;;;;;;8.47;4.30;;;9.90;99.90;;;;;;4992061;28;21022;-76
2023/04/27 08:05:08;;;;;;;6.60;4.83;;;9.80;99.80;;;;;;5010466;28;20472;-76
2023/04/27 08:07:34;;;;;;;7.27;4.30;;;9.80;99.90;;;;;;5009935;28;20426;-78
2023/04/27 08:09:59;;;;;;;5.63;4.00;;;9.80;99.90;;;;;;5008340;28;20531;-78
2023/04/27 08:12:25;;;;;;;5.50;4.17;;;9.90;99.90;;;;;;5025464;28;20426;-77
2023/04/27 08:14:51;;;;;;;4.80;4.30;;;9.90;99.90;;;;;;5010111;28;20183;-78
2023/04/27 08:17:17;;;;;;;7.23;4.13;;;9.90;99.90;;;;;;5010433;28;20776;-78
2023/04/27 08:19:43;;;;;;;5.10;3.73;;;10.00;99.60;;;;;;5010061;28;20424;-78
2023/04/27 08:22:09;;;;;;;13.20;4.63;;;10.00;99.50;;;;;;5008952;28;20430;-78
2023/04/27 08:24:35;;;;;;;5.63;4.10;;;10.00;99.00;;;;;;5009292;28;20175;-76
2023/04/27 08:27:02;;;;;;;3.60;3.30;;;9.90;99.10;;;;;;5010384;28;20274;-78
2023/04/27 08:29:28;;;;;;;6.63;3.80;;;9.90;99.50;;;;;;5009973;28;20464;-78
2023/04/27 08:31:54;;;;;;;6.67;3.50;;;9.90;99.50;;;;;;5010315;28;20434;-78
2023/04/27 08:34:19;;;;;;;7.80;5.43;;;9.90;99.50;;;;;;5010070;28;20183;-77
2023/04/27 08:36:45;;;;;;;6.10;4.10;;;9.90;99.20;;;;;;5010045;28;20865;-77
2023/04/27 08:39:11;;;;;;;5.10;3.33;;;10.00;98.20;;;;;;5008733;28;20223;-77
2023/04/27 08:41:41;;;;;;;7.23;3.53;;;10.00;98.20;;;;;;5013771;28;20299;-77
2023/04/27 08:44:07;;;;;;;4.47;4.03;;;10.00;97.90;;;;;;4990220;28;20208;-78
2023/04/27 08:46:32;;;;;;;3.60;3.30;;;9.90;97.90;;;;;;4990824;28;20833;-78
2023/04/27 08:48:58;;;;;;;6.43;3.40;;;9.90;98.40;;;;;;4994300;28;20195;-78
2023/04/27 08:51:26;;;;;;;5.53;3.80;;;10.00;98.00;;;;;;5009213;28;20208;-75
2023/04/27 08:53:57;;;;;;;4.23;3.07;;;10.10;98.40;;;;;;5007830;28;20229;-77
2023/04/27 08:56:24;;;;;;;6.50;3.77;;;10.20;98.80;;;;;;5024363;28;20504;-77
2023/04/27 08:58:50;;;;;;;5.73;3.60;;;10.20;97.70;;;;;;5013426;28;20997;-78
2023/04/27 09:01:17;;;;;;;4.63;3.70;;;10.30;97.60;;;;;;4995926;28;20446;-78
2023/04/27 09:03:45;;;;;;;4.00;3.60;;;10.40;97.00;;;;;;5002855;28;20407;-78
2023/04/27 09:06:12;;;;;;;4.63;3.53;;;10.50;97.60;;;;;;4991528;28;21014;-78
2023/04/27 09:08:45;;;;;;;6.93;3.50;;;10.50;95.80;;;;;;4991486;28;20498;-78
2023/04/27 09:11:15;;;;;;;4.50;3.30;;;10.60;95.10;;;;;;4992234;28;20561;-77
2023/04/27 09:13:44;;;;;;;3.70;3.37;;;10.60;95.30;;;;;;4992570;28;20414;-78
2023/04/27 09:16:12;;;;;;;3.80;3.30;;;10.60;95.10;;;;;;4992652;28;20506;-78
2023/04/27 09:18:41;;;;;;;4.90;3.07;;;10.70;95.30;;;;;;4993766;28;20446;-78
2023/04/27 09:21:07;;;;;;;6.33;3.67;;;10.80;94.90;;;;;;4993453;28;20531;-78
2023/04/27 09:23:35;;;;;;;6.60;3.63;;;10.90;94.30;;;;;;4993626;28;20415;-78
2023/04/27 09:26:07;;;;;;;6.03;3.60;;;11.10;94.00;;;;;;4992504;28;20198;-78
2023/04/27 09:28:37;;;;;;;4.27;3.70;;;11.10;92.90;;;;;;4993644;28;20940;-77
2023/04/27 09:31:03;;;;;;;6.00;3.30;;;11.20;92.50;;;;;;5006427;28;20471;-76
2023/04/27 09:33:33;;;;;;;5.83;3.80;;;11.20;93.20;;;;;;4991620;28;20403;-76
2023/04/27 09:36:00;;;;;;;7.50;3.80;;;11.20;92.00;;;;;;4991963;28;20951;-76
2023/04/27 09:38:26;;;;;;;4.40;4.00;;;11.30;93.10;;;;;;4991429;28;20640;-76
2023/04/27 09:40:53;;;;;;;3.93;3.53;;;11.40;93.70;;;;;;4995460;28;20442;-76
2023/04/27 09:43:19;;;;;;;4.03;3.20;;;11.60;93.70;;;;;;5010943;28;20420;-77
2023/04/27 09:45:45;;;;;;;6.70;3.60;;;11.80;92.80;;;;;;5011012;28;20410;-76
2023/04/27 09:48:12;;;;;;;4.70;3.43;;;11.90;92.70;;;;;;5010944;28;20422;-76
2023/04/27 09:50:42;;;;;;;6.80;4.07;;;12.00;93.20;;;;;;5010719;28;20276;-76
2023/04/27 09:53:14;;;;;;;5.70;4.10;;;11.90;92.10;;;;;;5010811;28;20418;-76
2023/04/27 09:55:58;;;;;;;4.80;3.97;;;12.10;92.70;;;;;;5026175;28;20497;-77
2023/04/27 09:58:39;;;;;;;7.00;4.40;;;12.20;93.30;;;;;;5009460;28;20904;-77
2023/04/27 10:01:32;;;;;;;5.57;3.90;;;12.20;92.40;;;;;;5025656;28;20473;-77
2023/04/27 10:04:24;;;;;;;6.67;4.00;;;12.30;93.10;;;;;;4998489;28;20491;-78
2023/04/27 10:07:08;;;;;;;4.37;3.97;;;12.40;92.30;;;;;;4990295;28;20814;-74
2023/04/27 10:09:46;;;;;;;6.60;3.63;;;12.40;91.10;;;;;;5006176;28;20494;-77
2023/04/27 10:12:17;;;;;;;5.30;4.10;;;12.30;91.20;;;;;;4991023;28;20443;-78
2023/04/27 10:15:10;;;;;;;4.03;3.63;;;12.30;91.60;;;;;;4990968;28;20418;-76
2023/04/27 10:17:35;;;;;;;9.73;4.10;;;12.40;93.00;;;;;;4989581;28;20494;-77
2023/04/27 10:20:02;;;;;;;5.20;4.70;;;12.40;91.90;;;;;;4991040;28;20573;-77
2023/04/27 10:22:38;;;;;;;5.80;4.80;;;12.50;92.70;;;;;;4990737;28;20196;-77
2023/04/27 10:25:22;;;;;;;6.50;4.87;;;12.60;92.20;;;;;;4989556;28;20418;-76
2023/04/27 10:28:00;;;;;;;4.77;4.10;;;12.70;92.50;;;;;;4989328;28;20438;-77
2023/04/27 10:30:31;;;;;;;6.27;4.60;;;12.70;92.80;;;;;;4989046;28;20501;-77
2023/04/27 10:33:02;;;;;;;6.13;5.10;;;12.80;92.40;;;;;;4990859;28;20447;-77
2023/04/27 10:35:38;;;;;;;6.77;4.63;;;12.80;91.30;;;;;;5005620;28;20760;-76
2023/04/27 10:38:30;;;;;;;7.03;5.10;;;12.80;91.20;;;;;;4988977;28;20466;-77
2023/04/27 10:41:01;;;;;;;5.10;4.10;;;12.80;90.60;;;;;;4992821;28;20485;-77
2023/04/27 10:43:29;;;;;;;5.67;4.37;;;12.80;90.10;;;;;;5009975;28;20418;-77
2023/04/27 10:46:07;;;;;;;8.27;4.90;;;12.80;90.50;;;;;;5010043;28;20445;-77
2023/04/27 10:48:32;;;;;;;6.00;4.90;;;12.90;90.10;;;;;;4992305;28;20418;-77
2023/04/27 10:51:01;;;;;;;8.27;5.07;;;12.90;90.10;;;;;;5009605;28;20545;-77
2023/04/27 10:53:34;;;;;;;6.63;4.60;;;13.00;90.20;;;;;;5009699;28;20734;-76
2023/04/27 10:56:00;;;;;;;9.40;5.93;;;13.10;91.00;;;;;;5009878;28;20452;-77
2023/04/27 10:58:26;;;;;;;5.90;5.30;;;13.10;87.00;;;;;;5008518;28;20936;-76
2023/04/27 11:00:51;;;;;;;5.27;4.63;;;13.10;87.80;;;;;;5009497;28;20199;-76
2023/04/27 11:03:20;;;;;;;6.03;5.10;;;13.20;88.90;;;;;;5002922;28;20395;-77
2023/04/27 11:05:47;;;;;;;7.87;5.10;;;13.30;90.50;;;;;;4987717;28;20564;-77
2023/04/27 11:08:15;;;;;;;8.07;5.50;;;13.30;86.60;;;;;;4989853;28;20426;-76
2023/04/27 11:10:48;;;;;;;5.67;4.43;;;13.30;85.70;;;;;;4989198;28;20620;-76
2023/04/27 11:13:19;;;;;;;5.67;5.17;;;13.40;84.10;;;;;;4988638;28;20500;-78
2023/04/27 11:15:50;;;;;;;10.60;5.67;;;13.40;88.60;;;;;;4988895;28;20422;-76
2023/04/27 11:18:17;;;;;;;8.07;5.43;;;13.50;89.00;;;;;;4989731;28;20426;-75
2023/04/27 11:20:46;;;;;;;5.03;4.30;;;13.50;87.80;;;;;;4988211;28;20431;-75
2023/04/27 11:23:30;;;;;;;10.00;6.03;;;13.50;86.30;;;;;;4989573;28;20772;-76
2023/04/27 11:25:56;;;;;;;5.93;5.00;;;13.70;88.60;;;;;;4988936;28;20948;-76
2023/04/27 11:28:23;;;;;;;6.10;4.93;;;13.70;86.10;;;;;;4989506;28;20427;-76
2023/04/27 11:30:58;;;;;;;6.00;5.23;;;13.70;81.00;;;;;;4989602;28;20242;-76
2023/04/27 11:33:25;;;;;;;5.83;5.10;;;13.60;80.80;;;;;;4988031;28;20898;-76
2023/04/27 11:35:51;;;;;;;5.20;4.70;;;13.60;79.70;;;;;;5004437;28;20415;-77
2023/04/27 11:38:18;;;;;;;6.17;5.00;;;13.60;86.20;;;;;;5004442;28;20497;-76
2023/04/27 11:40:46;;;;;;;5.40;4.90;;;13.80;88.00;;;;;;4992185;28;20198;-76
2023/04/27 11:43:14;;;;;;;5.30;4.60;;;13.80;82.70;;;;;;5007429;28;20919;-77
2023/04/27 11:45:43;;;;;;;5.30;4.40;;;13.90;82.70;;;;;;5009188;28;20421;-76
2023/04/27 11:48:14;;;;;;;6.80;5.97;;;14.00;81.60;;;;;;5009042;28;20417;-77
2023/04/27 11:50:39;;;;;;;5.17;4.30;;;14.00;82.40;;;;;;5009032;28;20464;-77
2023/04/27 11:53:05;;;;;;;6.20;4.80;;;14.10;80.90;;;;;;5008768;28;20771;-76
2023/04/27 11:55:36;;;;;;;4.47;4.03;;;14.10;84.90;;;;;;5009212;28;20256;-76
2023/04/27 11:58:01;;;;;;;5.83;5.33;;;14.20;82.10;;;;;;5008965;28;20172;-76
2023/04/27 12:00:27;;;;;;;4.67;4.27;;;14.30;81.90;;;;;;5008843;28;20426;-76
2023/04/27 12:02:53;;;;;;;6.50;5.17;;;14.30;77.70;;;;;;5005419;28;20182;-76
2023/04/27 12:05:19;;;;;;;6.33;5.00;;;14.20;75.50;;;;;;4988673;28;20216;-76
2023/04/27 12:07:45;;;;;;;6.13;5.50;;;14.20;77.10;;;;;;4989014;28;20179;-76
2023/04/27 12:10:11;;;;;;;5.20;4.70;;;14.20;74.30;;;;;;4988123;28;20455;-76
2023/04/27 12:12:37;;;;;;;5.10;4.47;;;14.20;77.00;;;;;;5004327;28;20207;-76
2023/04/27 12:15:03;;;;;;;5.87;4.87;;;14.20;76.10;;;;;;4989634;28;20640;-76
2023/04/27 12:17:29;;;;;;;6.80;4.80;;;14.30;76.20;;;;;;5004281;28;20512;-76
2023/04/27 12:19:55;;;;;;;7.07;5.20;;;14.20;75.30;;;;;;4989270;28;20438;-76
2023/04/27 12:22:21;;;;;;;6.53;5.37;;;14.30;78.00;;;;;;4991332;28;20569;-76
2023/04/27 12:24:47;;;;;;;5.77;5.23;;;14.40;80.20;;;;;;4993041;28;20781;-78
2023/04/27 12:27:12;;;;;;;5.50;4.90;;;14.40;80.60;;;;;;4993061;28;20779;-77
2023/04/27 12:29:38;;;;;;;7.03;5.30;;;14.60;77.90;;;;;;4993069;28;21059;-76
2023/04/27 12:32:04;;;;;;;7.63;5.40;;;14.40;72.30;;;;;;5008020;28;20200;-76
2023/04/27 12:34:31;;;;;;;5.57;5.00;;;14.40;77.10;;;;;;4992654;28;20609;-76
2023/04/27 12:36:56;;;;;;;6.30;5.40;;;14.40;76.90;;;;;;4992641;28;20411;-76
2023/04/27 12:39:25;;;;;;;7.07;4.80;;;14.50;78.90;;;;;;4991309;28;20962;-76
2023/04/27 12:41:52;;;;;;;6.33;5.70;;;14.60;81.00;;;;;;5005995;28;20366;-77
2023/04/27 12:44:19;;;;;;;5.57;5.10;;;14.70;81.00;;;;;;5012095;28;20446;-76
2023/04/27 12:46:47;;;;;;;6.40;5.70;;;14.80;79.00;;;;;;5011117;28;20441;-76
2023/04/27 12:49:13;;;;;;;10.00;5.23;;;14.80;75.20;;;;;;5010828;28;20448;-76